sensor_id;sensor_type;location;lat;lon;timestamp;P1;durP1;ratioP1;P2;durP2;ratioP2
7485;SDS011;3784;54.098;9.998;2024-03-23T00:52:14;30.60;;;6.90;;
7485;SDS011;3784;54.098;9.998;2024-03-23T00:54:40;27.00;;;5.73;;
7485;SDS011;3784;54.098;9.998;2024-03-23T00:57:05;18.07;;;5.37;;
7485;SDS011;3784;54.098;9.998;2024-03-23T00:59:30;21.73;;;5.50;;
7485;SDS011;3784;54.098;9.998;2024-03-23T01:01:56;32.83;;;6.77;;
7485;SDS011;3784;54.098;9.998;2024-03-23T01:04:21;25.67;;;5.50;;
7485;SDS011;3784;54.098;9.998;2024-03-23T01:06:47;28.97;;;6.00;;
7485;SDS011;3784;54.098;9.998;2024-03-23T01:09:12;21.47;;;5.37;;
7485;SDS011;3784;54.098;9.998;2024-03-23T01:11:38;26.20;;;6.17;;
7485;SDS011;3784;54.098;9.998;2024-03-23T01:14:05;27.73;;;5.93;;
7485;SDS011;3784;54.098;9.998;2024-03-23T01:16:31;31.60;;;6.10;;
7485;SDS011;3784;54.098;9.998;2024-03-23T01:18:57;20.67;;;5.43;;
7485;SDS011;3784;54.098;9.998;2024-03-23T01:21:23;29.40;;;5.77;;
7485;SDS011;3784;54.098;9.998;2024-03-23T01:23:48;29.57;;;6.17;;
7485;SDS011;3784;54.098;9.998;2024-03-23T01:26:14;28.33;;;6.00;;
7485;SDS011;3784;54.098;9.998;2024-03-23T01:28:40;24.77;;;5.70;;
7485;SDS011;3784;54.098;9.998;2024-03-23T01:31:05;21.50;;;5.60;;
7485;SDS011;3784;54.098;9.998;2024-03-23T01:33:31;20.03;;;5.27;;
7485;SDS011;3784;54.098;9.998;2024-03-23T01:35:56;29.23;;;6.40;;
7485;SDS011;3784;54.098;9.998;2024-03-23T01:38:22;25.90;;;6.37;;
7485;SDS011;3784;54.098;9.998;2024-03-23T01:40:47;26.90;;;5.87;;
7485;SDS011;3784;54.098;9.998;2024-03-23T01:43:13;24.97;;;5.47;;
7485;SDS011;3784;54.098;9.998;2024-03-23T01:45:38;24.23;;;5.17;;
7485;SDS011;3784;54.098;9.998;2024-03-23T01:48:04;25.47;;;5.67;;
7485;SDS011;3784;54.098;9.998;2024-03-23T01:50:30;24.40;;;5.33;;
7485;SDS011;3784;54.098;9.998;2024-03-23T01:52:59;22.60;;;5.47;;
7485;SDS011;3784;54.098;9.998;2024-03-23T01:55:25;24.37;;;5.87;;
7485;SDS011;3784;54.098;9.998;2024-03-23T01:57:51;32.00;;;5.60;;
7485;SDS011;3784;54.098;9.998;2024-03-23T02:00:16;25.57;;;5.63;;
7485;SDS011;3784;54.098;9.998;2024-03-23T02:02:43;25.70;;;5.53;;
7485;SDS011;3784;54.098;9.998;2024-03-23T02:05:11;23.07;;;5.07;;
7485;SDS011;3784;54.098;9.998;2024-03-23T02:07:38;26.67;;;5.47;;
7485;SDS011;3784;54.098;9.998;2024-03-23T02:10:05;24.03;;;5.40;;
7485;SDS011;3784;54.098;9.998;2024-03-23T02:12:31;23.17;;;5.47;;
7485;SDS011;3784;54.098;9.998;2024-03-23T02:14:57;24.47;;;5.53;;
7485;SDS011;3784;54.098;9.998;2024-03-23T02:17:22;21.07;;;5.03;;
7485;SDS011;3784;54.098;9.998;2024-03-23T02:19:48;26.37;;;4.73;;
7485;SDS011;3784;54.098;9.998;2024-03-23T02:22:13;20.87;;;4.67;;
7485;SDS011;3784;54.098;9.998;2024-03-23T02:24:41;20.60;;;4.80;;
7485;SDS011;3784;54.098;9.998;2024-03-23T02:27:06;24.70;;;5.50;;
7485;SDS011;3784;54.098;9.998;2024-03-23T02:29:32;22.43;;;5.53;;
7485;SDS011;3784;54.098;9.998;2024-03-23T02:31:57;23.03;;;5.40;;
7485;SDS011;3784;54.098;9.998;2024-03-23T02:34:24;25.87;;;5.50;;
7485;SDS011;3784;54.098;9.998;2024-03-23T02:36:49;20.20;;;5.70;;
7485;SDS011;3784;54.098;9.998;2024-03-23T02:39:15;17.67;;;5.07;;
7485;SDS011;3784;54.098;9.998;2024-03-23T02:41:40;30.47;;;6.00;;
7485;SDS011;3784;54.098;9.998;2024-03-23T02:44:06;23.70;;;5.77;;
7485;SDS011;3784;54.098;9.998;2024-03-23T02:46:32;21.83;;;5.17;;
7485;SDS011;3784;54.098;9.998;2024-03-23T02:48:57;32.07;;;6.23;;
7485;SDS011;3784;54.098;9.998;2024-03-23T02:51:23;25.27;;;5.83;;
7485;SDS011;3784;54.098;9.998;2024-03-23T02:53:48;20.50;;;5.03;;
7485;SDS011;3784;54.098;9.998;2024-03-23T02:56:13;25.13;;;5.93;;
7485;SDS011;3784;54.098;9.998;2024-03-23T02:58:41;25.70;;;6.43;;
7485;SDS011;3784;54.098;9.998;2024-03-23T03:01:08;28.03;;;5.53;;
7485;SDS011;3784;54.098;9.998;2024-03-23T03:03:33;24.20;;;5.57;;
7485;SDS011;3784;54.098;9.998;2024-03-23T03:05:58;23.67;;;5.80;;
7485;SDS011;3784;54.098;9.998;2024-03-23T03:08:24;24.10;;;5.33;;
7485;SDS011;3784;54.098;9.998;2024-03-23T03:10:49;27.43;;;6.47;;
7485;SDS011;3784;54.098;9.998;2024-03-23T03:13:15;21.00;;;5.23;;
7485;SDS011;3784;54.098;9.998;2024-03-23T03:15:41;24.03;;;6.10;;
7485;SDS011;3784;54.098;9.998;2024-03-23T03:18:08;24.20;;;5.57;;
7485;SDS011;3784;54.098;9.998;2024-03-23T03:20:33;21.73;;;5.47;;
7485;SDS011;3784;54.098;9.998;2024-03-23T03:22:59;24.90;;;6.00;;
7485;SDS011;3784;54.098;9.998;2024-03-23T03:25:25;20.87;;;5.20;;
7485;SDS011;3784;54.098;9.998;2024-03-23T03:27:50;28.07;;;6.53;;
7485;SDS011;3784;54.098;9.998;2024-03-23T03:30:16;26.70;;;5.70;;
7485;SDS011;3784;54.098;9.998;2024-03-23T03:32:41;30.90;;;6.87;;
7485;SDS011;3784;54.098;9.998;2024-03-23T03:35:07;26.17;;;6.00;;
7485;SDS011;3784;54.098;9.998;2024-03-23T03:37:32;27.73;;;7.03;;
7485;SDS011;3784;54.098;9.998;2024-03-23T03:39:58;32.37;;;5.87;;
7485;SDS011;3784;54.098;9.998;2024-03-23T03:42:23;27.27;;;6.17;;
7485;SDS011;3784;54.098;9.998;2024-03-23T03:44:48;28.87;;;6.13;;
7485;SDS011;3784;54.098;9.998;2024-03-23T03:47:14;23.27;;;6.77;;
7485;SDS011;3784;54.098;9.998;2024-03-23T03:49:39;29.83;;;7.27;;
7485;SDS011;3784;54.098;9.998;2024-03-23T03:52:05;20.17;;;5.87;;
7485;SDS011;3784;54.098;9.998;2024-03-23T03:54:31;23.87;;;5.73;;
7485;SDS011;3784;54.098;9.998;2024-03-23T03:56:56;34.63;;;7.20;;
7485;SDS011;3784;54.098;9.998;2024-03-23T03:59:22;32.10;;;6.20;;
7485;SDS011;3784;54.098;9.998;2024-03-23T04:01:47;33.07;;;6.43;;
7485;SDS011;3784;54.098;9.998;2024-03-23T04:04:13;28.33;;;6.53;;
7485;SDS011;3784;54.098;9.998;2024-03-23T04:06:39;32.73;;;7.30;;
7485;SDS011;3784;54.098;9.998;2024-03-23T04:09:04;27.67;;;6.47;;
7485;SDS011;3784;54.098;9.998;2024-03-23T04:11:31;27.77;;;6.47;;
7485;SDS011;3784;54.098;9.998;2024-03-23T04:13:57;29.60;;;5.63;;
7485;SDS011;3784;54.098;9.998;2024-03-23T04:16:29;25.13;;;6.53;;
7485;SDS011;3784;54.098;9.998;2024-03-23T04:18:55;31.27;;;6.43;;
7485;SDS011;3784;54.098;9.998;2024-03-23T04:21:21;26.67;;;6.87;;
7485;SDS011;3784;54.098;9.998;2024-03-23T04:23:47;26.17;;;6.20;;
7485;SDS011;3784;54.098;9.998;2024-03-23T04:26:12;26.53;;;6.73;;
7485;SDS011;3784;54.098;9.998;2024-03-23T04:28:38;26.77;;;6.40;;
7485;SDS011;3784;54.098;9.998;2024-03-23T04:31:04;24.83;;;6.67;;
7485;SDS011;3784;54.098;9.998;2024-03-23T04:33:29;23.90;;;6.63;;
7485;SDS011;3784;54.098;9.998;2024-03-23T04:35:55;25.23;;;6.53;;
7485;SDS011;3784;54.098;9.998;2024-03-23T04:38:20;27.67;;;7.10;;
7485;SDS011;3784;54.098;9.998;2024-03-23T04:40:53;30.37;;;6.20;;
7485;SDS011;3784;54.098;9.998;2024-03-23T04:43:19;27.20;;;6.27;;
7485;SDS011;3784;54.098;9.998;2024-03-23T04:45:45;31.90;;;6.87;;
7485;SDS011;3784;54.098;9.998;2024-03-23T04:48:10;29.87;;;6.93;;
7485;SDS011;3784;54.098;9.998;2024-03-23T04:50:36;23.50;;;6.10;;
7485;SDS011;3784;54.098;9.998;2024-03-23T04:53:02;29.40;;;6.27;;
7485;SDS011;3784;54.098;9.998;2024-03-23T04:55:28;26.63;;;6.07;;
7485;SDS011;3784;54.098;9.998;2024-03-23T04:57:53;29.50;;;6.50;;
7485;SDS011;3784;54.098;9.998;2024-03-23T05:00:19;25.40;;;6.77;;
7485;SDS011;3784;54.098;9.998;2024-03-23T05:02:44;29.63;;;6.17;;
7485;SDS011;3784;54.098;9.998;2024-03-23T05:05:10;26.33;;;6.83;;
7485;SDS011;3784;54.098;9.998;2024-03-23T05:07:36;35.97;;;6.70;;
7485;SDS011;3784;54.098;9.998;2024-03-23T05:10:02;31.47;;;7.03;;
7485;SDS011;3784;54.098;9.998;2024-03-23T05:12:28;29.13;;;6.07;;
7485;SDS011;3784;54.098;9.998;2024-03-23T05:14:53;32.10;;;6.93;;
7485;SDS011;3784;54.098;9.998;2024-03-23T05:17:19;31.07;;;6.67;;
7485;SDS011;3784;54.098;9.998;2024-03-23T05:19:44;30.00;;;7.33;;
7485;SDS011;3784;54.098;9.998;2024-03-23T05:22:10;33.23;;;6.60;;
7485;SDS011;3784;54.098;9.998;2024-03-23T05:24:35;22.90;;;6.80;;
7485;SDS011;3784;54.098;9.998;2024-03-23T05:27:00;23.27;;;6.73;;
7485;SDS011;3784;54.098;9.998;2024-03-23T05:29:26;30.73;;;7.13;;
7485;SDS011;3784;54.098;9.998;2024-03-23T05:31:52;33.20;;;7.40;;
7485;SDS011;3784;54.098;9.998;2024-03-23T05:34:17;25.73;;;7.50;;
7485;SDS011;3784;54.098;9.998;2024-03-23T05:36:43;31.63;;;7.93;;
7485;SDS011;3784;54.098;9.998;2024-03-23T05:39:08;28.00;;;6.77;;
7485;SDS011;3784;54.098;9.998;2024-03-23T05:41:34;31.07;;;7.03;;
7485;SDS011;3784;54.098;9.998;2024-03-23T05:44:01;34.90;;;7.53;;
7485;SDS011;3784;54.098;9.998;2024-03-23T05:46:27;30.63;;;7.10;;
7485;SDS011;3784;54.098;9.998;2024-03-23T05:48:53;28.37;;;6.63;;
7485;SDS011;3784;54.098;9.998;2024-03-23T05:51:19;34.40;;;7.40;;
7485;SDS011;3784;54.098;9.998;2024-03-23T05:53:44;26.40;;;6.40;;
7485;SDS011;3784;54.098;9.998;2024-03-23T05:56:10;28.00;;;7.40;;
7485;SDS011;3784;54.098;9.998;2024-03-23T05:58:35;30.53;;;7.77;;
7485;SDS011;3784;54.098;9.998;2024-03-23T06:01:01;30.23;;;6.70;;
7485;SDS011;3784;54.098;9.998;2024-03-23T06:03:27;31.10;;;7.67;;
7485;SDS011;3784;54.098;9.998;2024-03-23T06:05:53;32.50;;;7.70;;
7485;SDS011;3784;54.098;9.998;2024-03-23T06:08:19;36.43;;;8.03;;
7485;SDS011;3784;54.098;9.998;2024-03-23T06:10:48;31.90;;;7.73;;
7485;SDS011;3784;54.098;9.998;2024-03-23T06:13:13;31.00;;;6.90;;
7485;SDS011;3784;54.098;9.998;2024-03-23T06:15:39;23.73;;;7.00;;
7485;SDS011;3784;54.098;9.998;2024-03-23T06:18:05;32.53;;;8.30;;
7485;SDS011;3784;54.098;9.998;2024-03-23T06:20:30;29.37;;;6.70;;
7485;SDS011;3784;54.098;9.998;2024-03-23T06:22:56;27.50;;;7.80;;
7485;SDS011;3784;54.098;9.998;2024-03-23T06:25:23;25.47;;;7.03;;
7485;SDS011;3784;54.098;9.998;2024-03-23T06:27:48;31.17;;;7.17;;
7485;SDS011;3784;54.098;9.998;2024-03-23T06:30:13;31.63;;;7.43;;
7485;SDS011;3784;54.098;9.998;2024-03-23T06:32:39;27.27;;;7.10;;
7485;SDS011;3784;54.098;9.998;2024-03-23T06:35:04;29.73;;;7.30;;
7485;SDS011;3784;54.098;9.998;2024-03-23T06:37:34;28.80;;;7.43;;
7485;SDS011;3784;54.098;9.998;2024-03-23T06:40:00;27.70;;;7.10;;
7485;SDS011;3784;54.098;9.998;2024-03-23T06:42:25;27.30;;;6.57;;
7485;SDS011;3784;54.098;9.998;2024-03-23T06:44:51;27.07;;;7.73;;
7485;SDS011;3784;54.098;9.998;2024-03-23T06:47:16;31.90;;;8.00;;
7485;SDS011;3784;54.098;9.998;2024-03-23T06:49:42;28.93;;;7.50;;
7485;SDS011;3784;54.098;9.998;2024-03-23T06:52:07;30.97;;;8.33;;
7485;SDS011;3784;54.098;9.998;2024-03-23T06:54:33;29.43;;;7.57;;
7485;SDS011;3784;54.098;9.998;2024-03-23T06:56:58;26.60;;;7.33;;
7485;SDS011;3784;54.098;9.998;2024-03-23T06:59:24;31.47;;;7.47;;
7485;SDS011;3784;54.098;9.998;2024-03-23T07:01:49;30.33;;;7.70;;
7485;SDS011;3784;54.098;9.998;2024-03-23T07:04:15;26.80;;;7.70;;
7485;SDS011;3784;54.098;9.998;2024-03-23T07:06:44;28.77;;;7.20;;
7485;SDS011;3784;54.098;9.998;2024-03-23T07:09:10;27.37;;;7.53;;
7485;SDS011;3784;54.098;9.998;2024-03-23T07:11:36;32.93;;;8.07;;
7485;SDS011;3784;54.098;9.998;2024-03-23T07:14:02;29.17;;;7.87;;
7485;SDS011;3784;54.098;9.998;2024-03-23T07:16:28;30.40;;;7.90;;
7485;SDS011;3784;54.098;9.998;2024-03-23T07:18:54;24.93;;;7.17;;
7485;SDS011;3784;54.098;9.998;2024-03-23T07:21:19;27.53;;;6.97;;
7485;SDS011;3784;54.098;9.998;2024-03-23T07:23:45;28.43;;;7.10;;
7485;SDS011;3784;54.098;9.998;2024-03-23T07:26:10;27.53;;;8.23;;
7485;SDS011;3784;54.098;9.998;2024-03-23T07:28:36;20.17;;;6.77;;
7485;SDS011;3784;54.098;9.998;2024-03-23T07:31:03;18.30;;;7.17;;
7485;SDS011;3784;54.098;9.998;2024-03-23T07:33:37;24.63;;;7.30;;
7485;SDS011;3784;54.098;9.998;2024-03-23T07:36:06;22.40;;;7.37;;
7485;SDS011;3784;54.098;9.998;2024-03-23T07:38:32;29.27;;;7.67;;
7485;SDS011;3784;54.098;9.998;2024-03-23T07:41:07;24.40;;;6.33;;
7485;SDS011;3784;54.098;9.998;2024-03-23T07:43:34;20.53;;;6.87;;
7485;SDS011;3784;54.098;9.998;2024-03-23T07:46:00;18.83;;;6.50;;
7485;SDS011;3784;54.098;9.998;2024-03-23T07:48:26;21.60;;;6.37;;
7485;SDS011;3784;54.098;9.998;2024-03-23T07:51:08;24.43;;;7.27;;
7485;SDS011;3784;54.098;9.998;2024-03-23T07:53:35;24.83;;;6.73;;
7485;SDS011;3784;54.098;9.998;2024-03-23T07:56:02;25.37;;;6.87;;
7485;SDS011;3784;54.098;9.998;2024-03-23T07:58:30;20.47;;;6.53;;
7485;SDS011;3784;54.098;9.998;2024-03-23T08:00:56;19.47;;;6.07;;
7485;SDS011;3784;54.098;9.998;2024-03-23T08:03:22;18.20;;;6.13;;
7485;SDS011;3784;54.098;9.998;2024-03-23T08:05:48;21.63;;;5.97;;
7485;SDS011;3784;54.098;9.998;2024-03-23T08:08:14;20.57;;;6.30;;
7485;SDS011;3784;54.098;9.998;2024-03-23T08:10:52;24.70;;;6.53;;
7485;SDS011;3784;54.098;9.998;2024-03-23T08:13:18;22.13;;;6.63;;
7485;SDS011;3784;54.098;9.998;2024-03-23T08:15:44;17.97;;;6.33;;
7485;SDS011;3784;54.098;9.998;2024-03-23T08:18:12;22.57;;;6.30;;
7485;SDS011;3784;54.098;9.998;2024-03-23T08:20:37;22.80;;;6.03;;
7485;SDS011;3784;54.098;9.998;2024-03-23T08:23:04;20.77;;;6.10;;
7485;SDS011;3784;54.098;9.998;2024-03-23T08:25:31;18.23;;;5.70;;
7485;SDS011;3784;54.098;9.998;2024-03-23T08:27:57;18.13;;;5.43;;
7485;SDS011;3784;54.098;9.998;2024-03-23T08:30:23;20.77;;;5.63;;
7485;SDS011;3784;54.098;9.998;2024-03-23T08:32:48;23.83;;;6.10;;
7485;SDS011;3784;54.098;9.998;2024-03-23T08:35:14;18.60;;;6.13;;
7485;SDS011;3784;54.098;9.998;2024-03-23T08:37:39;17.40;;;4.87;;
7485;SDS011;3784;54.098;9.998;2024-03-23T08:40:05;12.10;;;4.50;;
7485;SDS011;3784;54.098;9.998;2024-03-23T08:42:31;18.57;;;5.97;;
7485;SDS011;3784;54.098;9.998;2024-03-23T08:44:57;15.13;;;4.87;;
7485;SDS011;3784;54.098;9.998;2024-03-23T08:47:22;14.43;;;4.57;;
7485;SDS011;3784;54.098;9.998;2024-03-23T08:49:48;14.00;;;4.30;;
7485;SDS011;3784;54.098;9.998;2024-03-23T08:52:13;13.67;;;4.00;;
7485;SDS011;3784;54.098;9.998;2024-03-23T08:54:39;14.47;;;4.33;;
7485;SDS011;3784;54.098;9.998;2024-03-23T08:57:04;15.90;;;4.40;;
7485;SDS011;3784;54.098;9.998;2024-03-23T08:59:30;16.53;;;4.87;;
7485;SDS011;3784;54.098;9.998;2024-03-23T09:01:55;12.70;;;4.13;;
7485;SDS011;3784;54.098;9.998;2024-03-23T09:04:21;14.43;;;4.40;;
7485;SDS011;3784;54.098;9.998;2024-03-23T09:06:46;11.37;;;3.33;;
7485;SDS011;3784;54.098;9.998;2024-03-23T09:09:12;10.20;;;2.83;;
7485;SDS011;3784;54.098;9.998;2024-03-23T09:11:37;9.77;;;2.73;;
7485;SDS011;3784;54.098;9.998;2024-03-23T09:14:03;8.10;;;2.60;;
7485;SDS011;3784;54.098;9.998;2024-03-23T09:16:29;10.67;;;2.87;;
7485;SDS011;3784;54.098;9.998;2024-03-23T09:18:54;8.70;;;2.93;;
7485;SDS011;3784;54.098;9.998;2024-03-23T09:21:19;9.93;;;3.10;;
7485;SDS011;3784;54.098;9.998;2024-03-23T09:23:45;8.70;;;2.90;;
7485;SDS011;3784;54.098;9.998;2024-03-23T09:26:11;14.23;;;4.00;;
7485;SDS011;3784;54.098;9.998;2024-03-23T09:28:37;12.00;;;3.37;;
7485;SDS011;3784;54.098;9.998;2024-03-23T09:31:06;16.10;;;3.03;;
7485;SDS011;3784;54.098;9.998;2024-03-23T09:33:32;15.33;;;3.90;;
7485;SDS011;3784;54.098;9.998;2024-03-23T09:36:02;18.00;;;4.50;;
7485;SDS011;3784;54.098;9.998;2024-03-23T09:38:31;12.57;;;4.00;;
7485;SDS011;3784;54.098;9.998;2024-03-23T09:40:57;13.33;;;3.67;;
7485;SDS011;3784;54.098;9.998;2024-03-23T09:43:23;11.90;;;3.67;;
7485;SDS011;3784;54.098;9.998;2024-03-23T09:45:48;15.17;;;4.03;;
7485;SDS011;3784;54.098;9.998;2024-03-23T09:48:14;8.70;;;3.60;;
7485;SDS011;3784;54.098;9.998;2024-03-23T09:50:41;12.57;;;3.80;;
7485;SDS011;3784;54.098;9.998;2024-03-23T09:53:11;11.03;;;3.57;;
7485;SDS011;3784;54.098;9.998;2024-03-23T09:55:37;10.07;;;3.30;;
7485;SDS011;3784;54.098;9.998;2024-03-23T09:58:03;12.10;;;3.87;;
7485;SDS011;3784;54.098;9.998;2024-03-23T10:00:30;11.13;;;3.23;;
7485;SDS011;3784;54.098;9.998;2024-03-23T10:02:56;10.43;;;3.30;;
7485;SDS011;3784;54.098;9.998;2024-03-23T10:05:29;14.93;;;3.73;;
7485;SDS011;3784;54.098;9.998;2024-03-23T10:07:57;13.00;;;4.37;;
7485;SDS011;3784;54.098;9.998;2024-03-23T10:10:24;14.67;;;4.10;;
7485;SDS011;3784;54.098;9.998;2024-03-23T10:12:50;12.90;;;4.33;;
7485;SDS011;3784;54.098;9.998;2024-03-23T10:15:18;10.67;;;3.37;;
7485;SDS011;3784;54.098;9.998;2024-03-23T10:17:44;13.53;;;3.97;;
7485;SDS011;3784;54.098;9.998;2024-03-23T10:20:10;11.97;;;3.30;;
7485;SDS011;3784;54.098;9.998;2024-03-23T10:22:37;9.90;;;3.30;;
7485;SDS011;3784;54.098;9.998;2024-03-23T10:25:07;14.30;;;7.67;;
7485;SDS011;3784;54.098;9.998;2024-03-23T10:27:33;13.63;;;3.43;;
7485;SDS011;3784;54.098;9.998;2024-03-23T10:30:07;12.27;;;3.50;;
7485;SDS011;3784;54.098;9.998;2024-03-23T10:32:37;9.97;;;3.00;;
7485;SDS011;3784;54.098;9.998;2024-03-23T10:35:21;9.60;;;3.17;;
7485;SDS011;3784;54.098;9.998;2024-03-23T10:37:47;7.67;;;3.20;;
7485;SDS011;3784;54.098;9.998;2024-03-23T10:40:15;9.53;;;3.00;;
7485;SDS011;3784;54.098;9.998;2024-03-23T10:42:41;9.03;;;2.87;;
7485;SDS011;3784;54.098;9.998;2024-03-23T10:45:06;8.10;;;2.60;;
7485;SDS011;3784;54.098;9.998;2024-03-23T10:47:34;9.23;;;2.70;;
7485;SDS011;3784;54.098;9.998;2024-03-23T10:50:01;10.37;;;3.30;;
7485;SDS011;3784;54.098;9.998;2024-03-23T10:52:28;7.73;;;2.63;;
7485;SDS011;3784;54.098;9.998;2024-03-23T10:54:53;11.87;;;2.53;;
7485;SDS011;3784;54.098;9.998;2024-03-23T10:57:21;8.50;;;2.53;;
7485;SDS011;3784;54.098;9.998;2024-03-23T10:59:48;8.50;;;3.10;;
7485;SDS011;3784;54.098;9.998;2024-03-23T11:02:20;11.30;;;3.03;;
7485;SDS011;3784;54.098;9.998;2024-03-23T11:04:46;8.67;;;2.90;;
7485;SDS011;3784;54.098;9.998;2024-03-23T11:09:49;9.07;;;2.50;;
7485;SDS011;3784;54.098;9.998;2024-03-23T11:14:48;9.97;;;2.90;;
7485;SDS011;3784;54.098;9.998;2024-03-23T11:17:30;10.43;;;2.90;;
7485;SDS011;3784;54.098;9.998;2024-03-23T11:20:00;13.00;;;2.97;;
7485;SDS011;3784;54.098;9.998;2024-03-23T11:25:18;12.17;;;3.50;;
7485;SDS011;3784;54.098;9.998;2024-03-23T11:27:51;12.93;;;3.70;;
7485;SDS011;3784;54.098;9.998;2024-03-23T11:30:20;12.53;;;5.07;;
7485;SDS011;3784;54.098;9.998;2024-03-23T11:32:47;8.13;;;2.47;;
7485;SDS011;3784;54.098;9.998;2024-03-23T11:35:33;9.20;;;3.53;;
7485;SDS011;3784;54.098;9.998;2024-03-23T11:38:06;11.07;;;3.77;;
7485;SDS011;3784;54.098;9.998;2024-03-23T11:40:33;7.57;;;2.60;;
7485;SDS011;3784;54.098;9.998;2024-03-23T11:43:00;7.80;;;2.60;;
7485;SDS011;3784;54.098;9.998;2024-03-23T11:45:27;8.43;;;2.43;;
7485;SDS011;3784;54.098;9.998;2024-03-23T11:48:13;6.73;;;2.10;;
7485;SDS011;3784;54.098;9.998;2024-03-23T11:50:40;5.80;;;2.30;;
7485;SDS011;3784;54.098;9.998;2024-03-23T11:55:43;5.63;;;2.03;;
7485;SDS011;3784;54.098;9.998;2024-03-23T11:58:12;7.07;;;2.27;;
7485;SDS011;3784;54.098;9.998;2024-03-23T12:00:39;9.47;;;2.50;;
7485;SDS011;3784;54.098;9.998;2024-03-23T12:03:05;10.83;;;2.97;;
7485;SDS011;3784;54.098;9.998;2024-03-23T12:05:31;7.17;;;2.40;;
7485;SDS011;3784;54.098;9.998;2024-03-23T12:08:19;8.47;;;2.43;;
7485;SDS011;3784;54.098;9.998;2024-03-23T12:10:47;8.53;;;2.70;;
7485;SDS011;3784;54.098;9.998;2024-03-23T12:13:14;6.17;;;2.47;;
7485;SDS011;3784;54.098;9.998;2024-03-23T12:15:42;5.70;;;2.07;;
7485;SDS011;3784;54.098;9.998;2024-03-23T12:18:09;4.23;;;1.53;;
7485;SDS011;3784;54.098;9.998;2024-03-23T12:20:35;5.10;;;1.70;;
7485;SDS011;3784;54.098;9.998;2024-03-23T12:23:06;4.47;;;2.23;;
7485;SDS011;3784;54.098;9.998;2024-03-23T12:25:36;5.60;;;1.50;;
7485;SDS011;3784;54.098;9.998;2024-03-23T12:28:03;1.90;;;1.17;;
7485;SDS011;3784;54.098;9.998;2024-03-23T12:30:31;2.00;;;1.40;;
7485;SDS011;3784;54.098;9.998;2024-03-23T12:33:00;4.67;;;1.60;;
7485;SDS011;3784;54.098;9.998;2024-03-23T12:35:26;6.83;;;1.77;;
7485;SDS011;3784;54.098;9.998;2024-03-23T12:37:51;7.57;;;2.77;;
7485;SDS011;3784;54.098;9.998;2024-03-23T12:40:17;4.70;;;2.20;;
7485;SDS011;3784;54.098;9.998;2024-03-23T12:42:42;9.83;;;2.50;;
7485;SDS011;3784;54.098;9.998;2024-03-23T12:45:08;9.00;;;2.57;;
7485;SDS011;3784;54.098;9.998;2024-03-23T12:47:33;9.97;;;2.77;;
7485;SDS011;3784;54.098;9.998;2024-03-23T12:49:59;7.97;;;2.60;;
7485;SDS011;3784;54.098;9.998;2024-03-23T12:52:25;8.50;;;2.87;;
7485;SDS011;3784;54.098;9.998;2024-03-23T12:54:56;8.57;;;2.40;;
7485;SDS011;3784;54.098;9.998;2024-03-23T12:57:22;8.10;;;2.53;;
7485;SDS011;3784;54.098;9.998;2024-03-23T12:59:54;6.20;;;2.40;;
7485;SDS011;3784;54.098;9.998;2024-03-23T13:02:20;6.37;;;2.17;;
7485;SDS011;3784;54.098;9.998;2024-03-23T13:04:46;7.80;;;2.87;;
7485;SDS011;3784;54.098;9.998;2024-03-23T13:07:15;7.70;;;2.77;;
7485;SDS011;3784;54.098;9.998;2024-03-23T13:09:42;7.17;;;2.50;;
7485;SDS011;3784;54.098;9.998;2024-03-23T13:12:07;6.30;;;2.60;;
7485;SDS011;3784;54.098;9.998;2024-03-23T13:14:33;7.93;;;2.63;;
7485;SDS011;3784;54.098;9.998;2024-03-23T13:16:59;6.40;;;2.37;;
7485;SDS011;3784;54.098;9.998;2024-03-23T13:19:24;7.07;;;2.50;;
7485;SDS011;3784;54.098;9.998;2024-03-23T13:21:56;7.87;;;2.63;;
7485;SDS011;3784;54.098;9.998;2024-03-23T13:24:25;9.50;;;2.83;;
7485;SDS011;3784;54.098;9.998;2024-03-23T13:26:51;7.83;;;2.57;;
7485;SDS011;3784;54.098;9.998;2024-03-23T13:29:17;10.23;;;2.77;;
7485;SDS011;3784;54.098;9.998;2024-03-23T13:31:44;6.63;;;2.53;;
7485;SDS011;3784;54.098;9.998;2024-03-23T13:34:09;6.60;;;2.60;;
7485;SDS011;3784;54.098;9.998;2024-03-23T13:36:35;7.43;;;2.83;;
7485;SDS011;3784;54.098;9.998;2024-03-23T13:39:01;8.87;;;2.57;;
7485;SDS011;3784;54.098;9.998;2024-03-23T13:41:31;7.83;;;4.93;;
7485;SDS011;3784;54.098;9.998;2024-03-23T13:43:57;8.93;;;2.80;;
7485;SDS011;3784;54.098;9.998;2024-03-23T13:46:22;9.77;;;2.80;;
7485;SDS011;3784;54.098;9.998;2024-03-23T13:48:48;9.13;;;3.27;;
7485;SDS011;3784;54.098;9.998;2024-03-23T13:51:13;9.20;;;2.80;;
7485;SDS011;3784;54.098;9.998;2024-03-23T13:53:38;9.67;;;3.27;;
7485;SDS011;3784;54.098;9.998;2024-03-23T13:56:04;9.17;;;2.50;;
7485;SDS011;3784;54.098;9.998;2024-03-23T13:58:30;9.60;;;3.47;;
7485;SDS011;3784;54.098;9.998;2024-03-23T14:00:56;9.57;;;2.70;;
7485;SDS011;3784;54.098;9.998;2024-03-23T14:03:22;9.03;;;2.90;;
7485;SDS011;3784;54.098;9.998;2024-03-23T14:05:48;7.80;;;2.50;;
7485;SDS011;3784;54.098;9.998;2024-03-23T14:08:13;7.93;;;2.53;;
7485;SDS011;3784;54.098;9.998;2024-03-23T14:10:42;8.67;;;2.97;;
7485;SDS011;3784;54.098;9.998;2024-03-23T14:13:08;8.03;;;2.90;;
7485;SDS011;3784;54.098;9.998;2024-03-23T14:15:33;12.67;;;3.47;;
7485;SDS011;3784;54.098;9.998;2024-03-23T14:17:59;10.17;;;2.60;;
7485;SDS011;3784;54.098;9.998;2024-03-23T14:20:24;12.53;;;2.80;;
7485;SDS011;3784;54.098;9.998;2024-03-23T14:22:53;9.20;;;4.50;;
7485;SDS011;3784;54.098;9.998;2024-03-23T14:25:19;7.03;;;2.50;;
7485;SDS011;3784;54.098;9.998;2024-03-23T14:27:44;7.13;;;2.67;;
7485;SDS011;3784;54.098;9.998;2024-03-23T14:30:10;8.13;;;2.93;;
7485;SDS011;3784;54.098;9.998;2024-03-23T14:32:37;9.17;;;2.83;;
7485;SDS011;3784;54.098;9.998;2024-03-23T14:35:03;9.13;;;2.60;;
7485;SDS011;3784;54.098;9.998;2024-03-23T14:37:29;8.83;;;2.60;;
7485;SDS011;3784;54.098;9.998;2024-03-23T14:39:55;7.70;;;2.40;;
7485;SDS011;3784;54.098;9.998;2024-03-23T14:42:23;6.03;;;2.60;;
7485;SDS011;3784;54.098;9.998;2024-03-23T14:44:49;7.50;;;2.40;;
7485;SDS011;3784;54.098;9.998;2024-03-23T14:47:18;9.67;;;3.13;;
7485;SDS011;3784;54.098;9.998;2024-03-23T14:49:44;11.17;;;3.20;;
7485;SDS011;3784;54.098;9.998;2024-03-23T14:52:18;9.37;;;2.90;;
7485;SDS011;3784;54.098;9.998;2024-03-23T14:54:44;12.70;;;3.10;;
7485;SDS011;3784;54.098;9.998;2024-03-23T14:57:10;12.17;;;3.17;;
7485;SDS011;3784;54.098;9.998;2024-03-23T14:59:36;10.90;;;3.20;;
7485;SDS011;3784;54.098;9.998;2024-03-23T15:02:08;8.67;;;3.80;;
7485;SDS011;3784;54.098;9.998;2024-03-23T15:04:34;12.37;;;3.57;;
7485;SDS011;3784;54.098;9.998;2024-03-23T15:07:00;10.17;;;3.50;;
7485;SDS011;3784;54.098;9.998;2024-03-23T15:09:26;7.37;;;3.23;;
7485;SDS011;3784;54.098;9.998;2024-03-23T15:11:51;18.07;;;3.40;;
7485;SDS011;3784;54.098;9.998;2024-03-23T15:14:17;10.43;;;3.40;;
7485;SDS011;3784;54.098;9.998;2024-03-23T15:16:42;9.67;;;3.17;;
7485;SDS011;3784;54.098;9.998;2024-03-23T15:19:11;9.33;;;3.40;;
7485;SDS011;3784;54.098;9.998;2024-03-23T15:21:36;10.03;;;3.20;;
7485;SDS011;3784;54.098;9.998;2024-03-23T15:24:02;12.10;;;3.37;;
7485;SDS011;3784;54.098;9.998;2024-03-23T15:26:28;9.43;;;3.20;;
7485;SDS011;3784;54.098;9.998;2024-03-23T15:28:53;11.47;;;2.97;;
7485;SDS011;3784;54.098;9.998;2024-03-23T15:31:21;8.47;;;3.87;;
7485;SDS011;3784;54.098;9.998;2024-03-23T15:33:47;8.83;;;2.47;;
7485;SDS011;3784;54.098;9.998;2024-03-23T15:36:12;4.63;;;1.70;;
7485;SDS011;3784;54.098;9.998;2024-03-23T15:38:38;3.43;;;2.27;;
7485;SDS011;3784;54.098;9.998;2024-03-23T15:41:04;3.80;;;1.57;;
7485;SDS011;3784;54.098;9.998;2024-03-23T15:43:29;6.73;;;2.00;;
7485;SDS011;3784;54.098;9.998;2024-03-23T15:46:00;4.13;;;1.50;;
7485;SDS011;3784;54.098;9.998;2024-03-23T15:48:29;5.33;;;1.93;;
7485;SDS011;3784;54.098;9.998;2024-03-23T15:50:56;5.13;;;1.70;;
7485;SDS011;3784;54.098;9.998;2024-03-23T15:53:23;5.90;;;2.03;;
7485;SDS011;3784;54.098;9.998;2024-03-23T15:55:55;10.67;;;2.13;;
7485;SDS011;3784;54.098;9.998;2024-03-23T15:58:22;6.83;;;2.20;;
7485;SDS011;3784;54.098;9.998;2024-03-23T16:03:43;6.87;;;2.50;;
7485;SDS011;3784;54.098;9.998;2024-03-23T16:06:08;7.93;;;2.53;;